Drummond Island, MI

12:02 PM EST on January 31, 2015 (GMT -0500)
Potagannissing Bay Front | Change Station
CLOSE
Current Station
Personal Weather Station
Location: Drummond Island, MI
Elevation: 587 ft
Nearby Weather Stations

Elev 587 ft 46.06 °N, 83.67 °W | Updated 4 seconds ago

Light Snow
Light Snow
21.5 °F
Feels Like 16 °F
N
4.0
Wind Variable Wind from WNW
Gusts 11.0 mph

Today
High -- | Low -- °F
--% Chance of Precip.
Yesterday
High -- | Low -- °F
Precip. -- in
7:58 AM 5:38 PM
Waxing Gibbous, 90% visible
Pressure 30.08 in
Visibility 7.0 miles
Clouds Overcast 1300 ft
Windchill 16 °F
Dew Point 19 °F
Humidity 89%
Rainfall 0.00 in
Snow Depth Not available.
UV 1 out of 12
Pollen .10 out of 12
Air Quality Not available.
Flu Activity Not available.
METAR KDRM 311655Z AUTO 25003KT 7SM -SN OVC013 M05/M07 A3008 RMK AO2 T10461067

More Conditions Fewer Conditions

Pressure 30.08 in
Visibility 7.0 miles
Clouds Overcast 1300 ft
Windchill 16 °F
Dew Point 19 °F
Humidity 89%
Rainfall 0.00 in
Snow Depth Not available.
UV 1 out of 12
Pollen .10 out of 12
Air Quality Not available.
Flu Activity Not available.
METAR KDRM 311655Z AUTO 25003KT 7SM -SN OVC013 M05/M07 A3008 RMK AO2 T10461067

More Conditions Fewer Conditions

Nowcast | as of 12:00 PM EST on January 31, 2015

At 1 PM...snow likely. Temperature 22. West winds 8 mph. At 3 PM...snow likely. Temperature 21. Northwest winds 13 mph. At 5 PM...partly cloudy. Chance of snow showers. Temperature 18. Northwest winds 14 mph. At 7 PM...partly cloudy. Temperature 14. Northwest winds 11 mph. Wind chill zero.

×

10-Day Weather Forecast

Almanac

Astronomy

Jan. 31, 2015 Rise Set
Actual Time
Civil Twilight
Nautical Twilight
Astronomical Twilight
Moon
Length of Visible Light
Length of Day
Tomorrow will be .
, % of the Moon is Illuminated

Today's Extremes

State Highs State Lows

Community

WunderPhotos

Upload Photos

1,792,117 photos uploaded!

WunderBlogs® & News

Nearby

Air Quality

  Air Quality AQ Index Pollutant
Not available.

Snow Depth

Station Depth Elevation

Earthquake Activity

City Distance Mag. Time & Date
Minimum magnitude displayed is 2.5.

Coastal Water Temperatures

Place Temperature

Nearby Weather Stations